Historique des mesures à Cassis (13260), France
Quotidien Résumé Mars 6, 2018 Unités:  US    Métrique   Métrique/US
« Précédent (Jour)
Suivant (Jour) »
Quotidien Hebdomadaire Mensuel Annuel Période au choix
  Maximum: Minimum: Moyenne:
Température: 32 °F 47.5 °F 50.9 °F
Point de rosée: 32 °F 40.8 °F 43.9 °F
Humidité: Humidity % 67 % 73 %
Vitesse du vent: WindSpeedKMH mph 0.0 mph 4.5 mph
Rafales: WindSpeedGustKMH mph - -
Vent:- - WSW
Pression: 0 in 29.1 in -
Précipitations: 116.84 in    
Historical Graphs
 
 
Mesures pour : Mars 6, 2018
Heure Temperature Point de rosée Pression Vent Vitesse du vent Rafales Humidité Pluie (par heure) Conditions
32 °F 32 °F 0 in Calm     Humidity % 0 in SoftwareType W/m2
00:12 49.6 °F 44.6 °F 29.2 in ENE 3.2 mph 4.7 mph 83 % 0 in open2300-1.11 W/m2
01:12 49.6 °F 44.1 °F 29.1 in NNE 2.9 mph 5.5 mph 81 % 0 in open2300-1.11 W/m2
02:12 49.6 °F 44.2 °F 29.1 in Calm   5.0 mph 82 % 12.7 in open2300-1.11 W/m2
03:12 48.9 °F 44.2 °F 29.1 in ESE 4.0 mph 5.0 mph 84 % 38.1 in open2300-1.11 W/m2
04:12 48 °F 43.3 °F 29.1 in NW 2.6 mph 5.5 mph 84 % 38.1 in open2300-1.11 W/m2
05:12 47.8 °F 43.5 °F 29.2 in NNW 5.0 mph 5.0 mph 85 % 25.4 in open2300-1.11 W/m2
06:12 47.5 °F 43.2 °F 29.2 in NNW 2.9 mph 5.0 mph 85 % 0 in open2300-1.11 W/m2
07:12 47.8 °F 43.2 °F 29.2 in Calm   3.5 mph 84 % 0 in open2300-1.11 W/m2
08:11 48.2 °F 43.2 °F 29.2 in Calm   1.8 mph 83 % 0 in open2300-1.11 W/m2
09:12 50.2 °F 44.4 °F 29.2 in Calm   2.6 mph 81 % 0 in open2300-1.11 W/m2
10:12 51.6 °F 44.8 °F 29.2 in WNW 5.0 mph 5.0 mph 77 % 0 in open2300-1.11 W/m2
11:12 52.7 °F 45.3 °F 29.3 in WNW 10.1 mph 10.1 mph 76 % 0 in open2300-1.11 W/m2
12:12 54.3 °F 45.9 °F 29.3 in WNW 16.3 mph 16.3 mph 73 % 0 in open2300-1.11 W/m2
13:11 55.2 °F 46.4 °F 29.2 in WNW 11.6 mph 11.6 mph 72 % 0 in open2300-1.11 W/m2
14:12 56.5 °F 46.8 °F 29.2 in WNW 12.2 mph 15.1 mph 70 % 0 in open2300-1.11 W/m2
15:12 55.9 °F 46.2 °F 29.3 in NW 14.8 mph 20.9 mph 70 % 0 in open2300-1.11 W/m2
16:11 56.1 °F 45.3 °F 29.3 in WSW 2.1 mph 10.8 mph 67 % 0 in open2300-1.11 W/m2
17:12 57 °F 46 °F 29.3 in WSW 2.1 mph 2.9 mph 67 % 0 in open2300-1.11 W/m2
18:12 55.6 °F 44.8 °F 29.3 in Calm     67 % 0 in open2300-1.11 W/m2
19:11 53.4 °F 44.2 °F 29.3 in WSW 2.6 mph 4.7 mph 71 % 0 in open2300-1.11 W/m2
20:12 52.9 °F 44.4 °F 29.3 in Calm     73 % 0 in open2300-1.11 W/m2
21:12 52.7 °F 45.3 °F 29.4 in Calm   1.8 mph 76 % 0 in open2300-1.11 W/m2
22:12 49.3 °F 41 °F 29.4 in NNW 9.3 mph 14.8 mph 73 % 0 in open2300-1.11 W/m2
23:12 50.2 °F 40.8 °F 29.4 in WNW 4.7 mph 4.7 mph 70 % 0 in open2300-1.11 W/m2
Observations météo à CASSIS
WU-History script by Weather Underground - 1 mb